Terminal Aerodrome Forecast
Issued by NWS

Home | Current Version | Previous Version | Text Only | Print | Product List | Glossary On
Versions: 1 2 3 4 5 6 7 8 9 10 11 12 13 14 15
000
FTUS43 KIND 281730 AAC
TAFHUF
TAF AMD
KHUF 281730Z 2818/2918 19013KT P6SM SCT250
     FM290100 18008KT P6SM FEW250
     FM290700 19008KT P6SM FEW050 SCT200 WS020/22040KT
     FM290800 19008KT P6SM FEW050 SCT200
     FM291000 19008KT P6SM FEW050 SCT200 WS020/22040KT
     FM291200 20009KT P6SM FEW045 SCT200
     FM291600 21011G21KT P6SM FEW050 SCT200=

USA.gov is the U.S. government's official web portal to all federal, state and local government web resources and services.